sensor_id;sensor_type;location;lat;lon;timestamp;P1;durP1;ratioP1;P2;durP2;ratioP2
70997;SDS011;58663;52.040;4.634;2023-03-01T00:00:36;17.90;;;9.70;;
70997;SDS011;58663;52.040;4.634;2023-03-01T00:03:01;18.40;;;11.00;;
70997;SDS011;58663;52.040;4.634;2023-03-01T00:05:27;17.83;;;10.38;;
70997;SDS011;58663;52.040;4.634;2023-03-01T00:07:53;16.95;;;10.95;;
70997;SDS011;58663;52.040;4.634;2023-03-01T00:10:18;24.75;;;9.98;;
70997;SDS011;58663;52.040;4.634;2023-03-01T00:12:43;20.30;;;9.75;;
70997;SDS011;58663;52.040;4.634;2023-03-01T00:15:09;21.98;;;10.68;;
70997;SDS011;58663;52.040;4.634;2023-03-01T00:17:34;16.30;;;10.02;;
70997;SDS011;58663;52.040;4.634;2023-03-01T00:19:59;17.67;;;9.40;;
70997;SDS011;58663;52.040;4.634;2023-03-01T00:22:26;20.15;;;9.95;;
70997;SDS011;58663;52.040;4.634;2023-03-01T00:24:53;19.48;;;11.60;;
70997;SDS011;58663;52.040;4.634;2023-03-01T00:27:18;26.33;;;11.23;;
70997;SDS011;58663;52.040;4.634;2023-03-01T00:29:44;20.17;;;10.07;;
70997;SDS011;58663;52.040;4.634;2023-03-01T00:32:09;23.55;;;11.10;;
70997;SDS011;58663;52.040;4.634;2023-03-01T00:34:34;15.93;;;10.27;;
70997;SDS011;58663;52.040;4.634;2023-03-01T00:37:00;23.02;;;11.57;;
70997;SDS011;58663;52.040;4.634;2023-03-01T00:39:30;18.45;;;10.73;;
70997;SDS011;58663;52.040;4.634;2023-03-01T00:41:56;20.73;;;10.55;;
70997;SDS011;58663;52.040;4.634;2023-03-01T00:44:21;17.17;;;10.18;;
70997;SDS011;58663;52.040;4.634;2023-03-01T00:46:47;16.73;;;9.43;;
70997;SDS011;58663;52.040;4.634;2023-03-01T00:49:13;22.15;;;11.25;;
70997;SDS011;58663;52.040;4.634;2023-03-01T00:51:38;17.85;;;10.90;;
70997;SDS011;58663;52.040;4.634;2023-03-01T00:54:07;19.15;;;11.05;;
70997;SDS011;58663;52.040;4.634;2023-03-01T00:56:33;16.23;;;9.18;;
70997;SDS011;58663;52.040;4.634;2023-03-01T00:58:59;19.80;;;11.60;;
70997;SDS011;58663;52.040;4.634;2023-03-01T01:01:25;23.73;;;10.95;;
70997;SDS011;58663;52.040;4.634;2023-03-01T01:03:55;17.17;;;9.85;;
70997;SDS011;58663;52.040;4.634;2023-03-01T01:06:29;18.67;;;10.57;;
70997;SDS011;58663;52.040;4.634;2023-03-01T01:08:57;15.93;;;10.30;;
70997;SDS011;58663;52.040;4.634;2023-03-01T01:11:23;18.67;;;10.45;;
70997;SDS011;58663;52.040;4.634;2023-03-01T01:13:50;20.30;;;10.40;;
70997;SDS011;58663;52.040;4.634;2023-03-01T01:16:16;20.42;;;11.18;;
70997;SDS011;58663;52.040;4.634;2023-03-01T01:18:42;21.75;;;11.02;;
70997;SDS011;58663;52.040;4.634;2023-03-01T01:21:09;20.45;;;10.35;;
70997;SDS011;58663;52.040;4.634;2023-03-01T01:23:36;19.52;;;11.23;;
70997;SDS011;58663;52.040;4.634;2023-03-01T01:26:03;21.85;;;11.45;;
70997;SDS011;58663;52.040;4.634;2023-03-01T01:28:33;19.70;;;9.57;;
70997;SDS011;58663;52.040;4.634;2023-03-01T01:30:58;17.63;;;10.23;;
70997;SDS011;58663;52.040;4.634;2023-03-01T01:33:24;23.08;;;10.57;;
70997;SDS011;58663;52.040;4.634;2023-03-01T01:35:49;20.88;;;11.63;;
70997;SDS011;58663;52.040;4.634;2023-03-01T01:38:15;17.13;;;9.65;;
70997;SDS011;58663;52.040;4.634;2023-03-01T01:40:44;23.15;;;11.15;;
70997;SDS011;58663;52.040;4.634;2023-03-01T01:43:43;18.63;;;10.32;;
70997;SDS011;58663;52.040;4.634;2023-03-01T01:46:25;17.30;;;8.60;;
70997;SDS011;58663;52.040;4.634;2023-03-01T01:48:54;18.75;;;9.77;;
70997;SDS011;58663;52.040;4.634;2023-03-01T01:51:44;24.80;;;10.98;;
70997;SDS011;58663;52.040;4.634;2023-03-01T01:54:14;21.88;;;11.18;;
70997;SDS011;58663;52.040;4.634;2023-03-01T01:56:44;16.35;;;9.73;;
70997;SDS011;58663;52.040;4.634;2023-03-01T02:01:39;13.18;;;8.70;;
70997;SDS011;58663;52.040;4.634;2023-03-01T02:04:04;14.25;;;9.07;;
70997;SDS011;58663;52.040;4.634;2023-03-01T02:06:32;21.38;;;10.48;;
70997;SDS011;58663;52.040;4.634;2023-03-01T02:09:00;16.77;;;8.65;;
70997;SDS011;58663;52.040;4.634;2023-03-01T02:11:29;19.00;;;9.60;;
70997;SDS011;58663;52.040;4.634;2023-03-01T02:13:55;19.85;;;10.65;;
70997;SDS011;58663;52.040;4.634;2023-03-01T02:16:21;15.43;;;9.15;;
70997;SDS011;58663;52.040;4.634;2023-03-01T02:18:46;17.10;;;10.73;;
70997;SDS011;58663;52.040;4.634;2023-03-01T02:23:40;14.63;;;7.57;;
70997;SDS011;58663;52.040;4.634;2023-03-01T02:26:06;17.23;;;11.02;;
70997;SDS011;58663;52.040;4.634;2023-03-01T02:28:36;14.32;;;8.40;;
70997;SDS011;58663;52.040;4.634;2023-03-01T02:31:03;16.40;;;9.85;;
70997;SDS011;58663;52.040;4.634;2023-03-01T02:33:48;18.50;;;9.88;;
70997;SDS011;58663;52.040;4.634;2023-03-01T02:36:17;18.90;;;9.45;;
70997;SDS011;58663;52.040;4.634;2023-03-01T02:38:44;18.55;;;8.32;;
70997;SDS011;58663;52.040;4.634;2023-03-01T02:41:10;23.63;;;11.80;;
70997;SDS011;58663;52.040;4.634;2023-03-01T02:43:37;17.58;;;10.05;;
70997;SDS011;58663;52.040;4.634;2023-03-01T02:46:22;26.23;;;11.25;;
70997;SDS011;58663;52.040;4.634;2023-03-01T02:48:49;17.20;;;10.55;;
70997;SDS011;58663;52.040;4.634;2023-03-01T02:57:03;18.67;;;10.10;;
70997;SDS011;58663;52.040;4.634;2023-03-01T02:59:30;21.25;;;11.02;;
70997;SDS011;58663;52.040;4.634;2023-03-01T03:01:56;19.83;;;10.30;;
70997;SDS011;58663;52.040;4.634;2023-03-01T03:04:22;23.17;;;10.48;;
70997;SDS011;58663;52.040;4.634;2023-03-01T03:06:49;18.98;;;9.18;;
70997;SDS011;58663;52.040;4.634;2023-03-01T03:09:16;19.08;;;10.68;;
70997;SDS011;58663;52.040;4.634;2023-03-01T03:11:41;21.70;;;12.32;;
70997;SDS011;58663;52.040;4.634;2023-03-01T03:14:10;25.67;;;12.38;;
70997;SDS011;58663;52.040;4.634;2023-03-01T03:16:40;22.52;;;11.98;;
70997;SDS011;58663;52.040;4.634;2023-03-01T03:19:06;17.05;;;10.27;;
70997;SDS011;58663;52.040;4.634;2023-03-01T03:21:32;21.65;;;12.38;;
70997;SDS011;58663;52.040;4.634;2023-03-01T03:23:58;19.65;;;10.18;;
70997;SDS011;58663;52.040;4.634;2023-03-01T03:26:23;20.13;;;10.65;;
70997;SDS011;58663;52.040;4.634;2023-03-01T03:28:49;22.05;;;10.38;;
70997;SDS011;58663;52.040;4.634;2023-03-01T03:31:14;24.98;;;11.32;;
70997;SDS011;58663;52.040;4.634;2023-03-01T03:33:39;24.60;;;10.45;;
70997;SDS011;58663;52.040;4.634;2023-03-01T03:36:05;23.63;;;10.77;;
70997;SDS011;58663;52.040;4.634;2023-03-01T03:38:31;19.30;;;11.13;;
70997;SDS011;58663;52.040;4.634;2023-03-01T03:41:04;21.88;;;11.55;;
70997;SDS011;58663;52.040;4.634;2023-03-01T03:43:32;23.98;;;12.98;;
70997;SDS011;58663;52.040;4.634;2023-03-01T03:45:59;16.35;;;10.05;;
70997;SDS011;58663;52.040;4.634;2023-03-01T03:48:25;18.25;;;11.60;;
70997;SDS011;58663;52.040;4.634;2023-03-01T03:50:52;20.20;;;11.07;;
70997;SDS011;58663;52.040;4.634;2023-03-01T03:53:18;23.45;;;11.50;;
70997;SDS011;58663;52.040;4.634;2023-03-01T03:55:44;23.83;;;11.85;;
70997;SDS011;58663;52.040;4.634;2023-03-01T03:58:10;22.42;;;11.70;;
70997;SDS011;58663;52.040;4.634;2023-03-01T04:00:37;23.60;;;11.52;;
70997;SDS011;58663;52.040;4.634;2023-03-01T04:03:04;19.38;;;11.02;;
70997;SDS011;58663;52.040;4.634;2023-03-01T04:05:30;21.52;;;12.20;;
70997;SDS011;58663;52.040;4.634;2023-03-01T04:07:56;18.27;;;10.70;;
70997;SDS011;58663;52.040;4.634;2023-03-01T04:10:28;22.42;;;12.90;;
70997;SDS011;58663;52.040;4.634;2023-03-01T04:12:55;26.33;;;13.60;;
70997;SDS011;58663;52.040;4.634;2023-03-01T04:15:21;31.95;;;12.98;;
70997;SDS011;58663;52.040;4.634;2023-03-01T04:17:49;28.17;;;14.05;;
70997;SDS011;58663;52.040;4.634;2023-03-01T04:20:16;21.92;;;11.93;;
70997;SDS011;58663;52.040;4.634;2023-03-01T04:22:42;22.35;;;11.93;;
70997;SDS011;58663;52.040;4.634;2023-03-01T04:25:08;19.88;;;10.85;;
70997;SDS011;58663;52.040;4.634;2023-03-01T04:27:34;18.38;;;11.18;;
70997;SDS011;58663;52.040;4.634;2023-03-01T04:30:00;15.77;;;9.45;;
70997;SDS011;58663;52.040;4.634;2023-03-01T04:32:26;18.48;;;11.10;;
70997;SDS011;58663;52.040;4.634;2023-03-01T04:34:52;38.65;;;10.45;;
70997;SDS011;58663;52.040;4.634;2023-03-01T04:37:17;24.65;;;12.80;;
70997;SDS011;58663;52.040;4.634;2023-03-01T04:39:42;21.42;;;11.95;;
70997;SDS011;58663;52.040;4.634;2023-03-01T04:42:12;21.30;;;12.10;;
70997;SDS011;58663;52.040;4.634;2023-03-01T04:44:41;22.05;;;11.27;;
70997;SDS011;58663;52.040;4.634;2023-03-01T04:47:08;27.02;;;13.07;;
70997;SDS011;58663;52.040;4.634;2023-03-01T04:49:33;19.50;;;11.73;;
70997;SDS011;58663;52.040;4.634;2023-03-01T04:51:58;24.17;;;11.30;;
70997;SDS011;58663;52.040;4.634;2023-03-01T04:54:26;17.25;;;11.30;;
70997;SDS011;58663;52.040;4.634;2023-03-01T04:57:01;17.67;;;9.85;;
70997;SDS011;58663;52.040;4.634;2023-03-01T04:59:27;21.48;;;10.27;;
70997;SDS011;58663;52.040;4.634;2023-03-01T05:01:54;24.23;;;10.20;;
70997;SDS011;58663;52.040;4.634;2023-03-01T05:04:23;19.52;;;11.07;;
70997;SDS011;58663;52.040;4.634;2023-03-01T05:06:49;19.10;;;11.23;;
70997;SDS011;58663;52.040;4.634;2023-03-01T05:09:14;28.52;;;10.07;;
70997;SDS011;58663;52.040;4.634;2023-03-01T05:11:40;19.95;;;9.82;;
70997;SDS011;58663;52.040;4.634;2023-03-01T05:14:06;32.60;;;9.43;;
70997;SDS011;58663;52.040;4.634;2023-03-01T05:16:32;21.33;;;10.38;;
70997;SDS011;58663;52.040;4.634;2023-03-01T05:18:58;20.45;;;10.55;;
70997;SDS011;58663;52.040;4.634;2023-03-01T05:21:23;19.77;;;11.45;;
70997;SDS011;58663;52.040;4.634;2023-03-01T05:23:48;18.30;;;10.05;;
70997;SDS011;58663;52.040;4.634;2023-03-01T05:26:14;17.50;;;10.70;;
70997;SDS011;58663;52.040;4.634;2023-03-01T05:28:42;28.40;;;10.45;;
70997;SDS011;58663;52.040;4.634;2023-03-01T05:31:08;18.00;;;10.82;;
70997;SDS011;58663;52.040;4.634;2023-03-01T05:33:37;18.80;;;10.07;;
70997;SDS011;58663;52.040;4.634;2023-03-01T05:36:05;15.82;;;10.48;;
70997;SDS011;58663;52.040;4.634;2023-03-01T05:38:32;20.92;;;11.30;;
70997;SDS011;58663;52.040;4.634;2023-03-01T05:40:57;29.35;;;10.43;;
70997;SDS011;58663;52.040;4.634;2023-03-01T05:43:23;17.35;;;10.25;;
70997;SDS011;58663;52.040;4.634;2023-03-01T05:45:48;15.90;;;10.23;;
70997;SDS011;58663;52.040;4.634;2023-03-01T05:48:13;18.13;;;10.95;;
70997;SDS011;58663;52.040;4.634;2023-03-01T05:50:43;20.30;;;10.25;;
70997;SDS011;58663;52.040;4.634;2023-03-01T05:55:36;19.17;;;11.25;;
70997;SDS011;58663;52.040;4.634;2023-03-01T05:58:04;19.63;;;11.00;;
70997;SDS011;58663;52.040;4.634;2023-03-01T06:00:31;20.90;;;12.45;;
70997;SDS011;58663;52.040;4.634;2023-03-01T06:02:57;18.65;;;10.48;;
70997;SDS011;58663;52.040;4.634;2023-03-01T06:05:24;25.17;;;12.60;;
70997;SDS011;58663;52.040;4.634;2023-03-01T06:07:49;21.92;;;10.70;;
70997;SDS011;58663;52.040;4.634;2023-03-01T06:10:15;19.05;;;10.68;;
70997;SDS011;58663;52.040;4.634;2023-03-01T06:12:41;17.48;;;9.95;;
70997;SDS011;58663;52.040;4.634;2023-03-01T06:15:09;20.35;;;11.07;;
70997;SDS011;58663;52.040;4.634;2023-03-01T06:17:35;19.50;;;10.70;;
70997;SDS011;58663;52.040;4.634;2023-03-01T06:20:06;14.60;;;9.60;;
70997;SDS011;58663;52.040;4.634;2023-03-01T06:22:35;19.48;;;9.80;;
70997;SDS011;58663;52.040;4.634;2023-03-01T06:25:00;20.00;;;10.35;;
70997;SDS011;58663;52.040;4.634;2023-03-01T06:27:25;22.00;;;11.32;;
70997;SDS011;58663;52.040;4.634;2023-03-01T06:29:51;17.98;;;10.23;;
70997;SDS011;58663;52.040;4.634;2023-03-01T06:32:16;17.75;;;9.20;;
70997;SDS011;58663;52.040;4.634;2023-03-01T06:34:41;24.33;;;13.00;;
70997;SDS011;58663;52.040;4.634;2023-03-01T06:37:07;13.90;;;9.52;;
70997;SDS011;58663;52.040;4.634;2023-03-01T06:39:33;12.82;;;8.57;;
70997;SDS011;58663;52.040;4.634;2023-03-01T06:41:58;18.00;;;10.35;;
70997;SDS011;58663;52.040;4.634;2023-03-01T06:44:24;21.33;;;10.32;;
70997;SDS011;58663;52.040;4.634;2023-03-01T06:46:49;17.17;;;9.32;;
70997;SDS011;58663;52.040;4.634;2023-03-01T06:49:15;13.65;;;9.15;;
70997;SDS011;58663;52.040;4.634;2023-03-01T06:51:42;19.48;;;10.73;;
70997;SDS011;58663;52.040;4.634;2023-03-01T06:54:08;15.85;;;9.30;;
70997;SDS011;58663;52.040;4.634;2023-03-01T06:56:33;17.42;;;9.90;;
70997;SDS011;58663;52.040;4.634;2023-03-01T06:58:58;18.63;;;10.57;;
70997;SDS011;58663;52.040;4.634;2023-03-01T07:01:24;14.90;;;9.90;;
70997;SDS011;58663;52.040;4.634;2023-03-01T07:03:49;20.60;;;10.98;;
70997;SDS011;58663;52.040;4.634;2023-03-01T07:06:15;16.38;;;8.93;;
70997;SDS011;58663;52.040;4.634;2023-03-01T07:08:40;20.08;;;10.65;;
70997;SDS011;58663;52.040;4.634;2023-03-01T07:11:06;18.25;;;10.27;;
70997;SDS011;58663;52.040;4.634;2023-03-01T07:13:32;17.52;;;10.82;;
70997;SDS011;58663;52.040;4.634;2023-03-01T07:15:57;21.63;;;10.77;;
70997;SDS011;58663;52.040;4.634;2023-03-01T07:18:23;20.27;;;11.20;;
70997;SDS011;58663;52.040;4.634;2023-03-01T07:20:48;18.10;;;10.32;;
70997;SDS011;58663;52.040;4.634;2023-03-01T07:23:13;19.55;;;9.95;;
70997;SDS011;58663;52.040;4.634;2023-03-01T07:25:40;21.13;;;11.25;;
70997;SDS011;58663;52.040;4.634;2023-03-01T07:28:05;20.88;;;11.38;;
70997;SDS011;58663;52.040;4.634;2023-03-01T07:30:30;21.80;;;11.57;;
70997;SDS011;58663;52.040;4.634;2023-03-01T07:32:57;22.55;;;11.35;;
70997;SDS011;58663;52.040;4.634;2023-03-01T07:35:23;21.45;;;12.35;;
70997;SDS011;58663;52.040;4.634;2023-03-01T07:37:50;18.20;;;10.88;;
70997;SDS011;58663;52.040;4.634;2023-03-01T07:40:15;19.25;;;11.85;;
70997;SDS011;58663;52.040;4.634;2023-03-01T07:42:41;19.52;;;11.60;;
70997;SDS011;58663;52.040;4.634;2023-03-01T07:45:06;19.48;;;10.73;;
70997;SDS011;58663;52.040;4.634;2023-03-01T07:47:32;27.75;;;13.95;;
70997;SDS011;58663;52.040;4.634;2023-03-01T07:49:58;22.42;;;12.77;;
70997;SDS011;58663;52.040;4.634;2023-03-01T07:52:23;27.00;;;14.02;;
70997;SDS011;58663;52.040;4.634;2023-03-01T07:54:49;28.55;;;14.35;;
70997;SDS011;58663;52.040;4.634;2023-03-01T07:57:14;27.95;;;13.02;;
70997;SDS011;58663;52.040;4.634;2023-03-01T07:59:39;30.45;;;15.48;;
70997;SDS011;58663;52.040;4.634;2023-03-01T08:02:05;31.75;;;16.20;;
70997;SDS011;58663;52.040;4.634;2023-03-01T08:04:31;33.17;;;15.82;;
70997;SDS011;58663;52.040;4.634;2023-03-01T08:06:58;35.22;;;16.30;;
70997;SDS011;58663;52.040;4.634;2023-03-01T08:09:23;30.73;;;15.38;;
70997;SDS011;58663;52.040;4.634;2023-03-01T08:11:49;36.97;;;17.80;;
70997;SDS011;58663;52.040;4.634;2023-03-01T08:14:14;41.65;;;16.13;;
70997;SDS011;58663;52.040;4.634;2023-03-01T08:16:39;33.80;;;16.65;;
70997;SDS011;58663;52.040;4.634;2023-03-01T08:19:09;40.00;;;18.17;;
70997;SDS011;58663;52.040;4.634;2023-03-01T08:21:36;36.83;;;18.13;;
70997;SDS011;58663;52.040;4.634;2023-03-01T08:24:05;44.25;;;17.80;;
70997;SDS011;58663;52.040;4.634;2023-03-01T08:26:31;36.40;;;16.10;;
70997;SDS011;58663;52.040;4.634;2023-03-01T08:28:57;35.50;;;14.77;;
70997;SDS011;58663;52.040;4.634;2023-03-01T08:31:30;26.80;;;14.45;;
70997;SDS011;58663;52.040;4.634;2023-03-01T08:33:59;30.30;;;13.30;;
70997;SDS011;58663;52.040;4.634;2023-03-01T08:36:26;30.50;;;15.10;;
70997;SDS011;58663;52.040;4.634;2023-03-01T08:38:53;29.60;;;14.63;;
70997;SDS011;58663;52.040;4.634;2023-03-01T08:41:18;24.83;;;13.38;;
70997;SDS011;58663;52.040;4.634;2023-03-01T08:43:44;31.98;;;13.77;;
70997;SDS011;58663;52.040;4.634;2023-03-01T08:46:09;27.65;;;13.35;;
70997;SDS011;58663;52.040;4.634;2023-03-01T08:48:35;28.35;;;14.40;;
70997;SDS011;58663;52.040;4.634;2023-03-01T08:51:07;30.00;;;13.25;;
70997;SDS011;58663;52.040;4.634;2023-03-01T08:53:38;28.20;;;14.13;;
70997;SDS011;58663;52.040;4.634;2023-03-01T08:56:04;31.80;;;14.82;;
70997;SDS011;58663;52.040;4.634;2023-03-01T08:58:29;31.52;;;14.05;;
70997;SDS011;58663;52.040;4.634;2023-03-01T09:00:55;29.00;;;14.43;;
70997;SDS011;58663;52.040;4.634;2023-03-01T09:03:21;30.13;;;13.40;;
70997;SDS011;58663;52.040;4.634;2023-03-01T09:05:47;28.02;;;14.05;;
70997;SDS011;58663;52.040;4.634;2023-03-01T09:08:15;26.30;;;13.73;;
70997;SDS011;58663;52.040;4.634;2023-03-01T09:10:40;24.60;;;11.85;;
70997;SDS011;58663;52.040;4.634;2023-03-01T09:13:06;25.95;;;12.10;;
70997;SDS011;58663;52.040;4.634;2023-03-01T09:15:31;30.95;;;12.43;;
70997;SDS011;58663;52.040;4.634;2023-03-01T09:17:58;23.42;;;11.45;;
70997;SDS011;58663;52.040;4.634;2023-03-01T09:20:24;20.83;;;10.93;;
70997;SDS011;58663;52.040;4.634;2023-03-01T09:22:49;20.60;;;10.05;;
70997;SDS011;58663;52.040;4.634;2023-03-01T09:25:14;19.67;;;9.38;;
70997;SDS011;58663;52.040;4.634;2023-03-01T09:27:40;13.75;;;7.80;;
70997;SDS011;58663;52.040;4.634;2023-03-01T09:30:05;15.35;;;8.40;;
70997;SDS011;58663;52.040;4.634;2023-03-01T09:32:31;11.00;;;7.13;;
70997;SDS011;58663;52.040;4.634;2023-03-01T09:34:57;12.10;;;6.53;;
70997;SDS011;58663;52.040;4.634;2023-03-01T09:37:32;12.52;;;7.20;;
70997;SDS011;58663;52.040;4.634;2023-03-01T09:39:58;14.00;;;7.18;;
70997;SDS011;58663;52.040;4.634;2023-03-01T09:42:23;8.32;;;5.45;;
70997;SDS011;58663;52.040;4.634;2023-03-01T09:44:57;10.25;;;5.95;;
70997;SDS011;58663;52.040;4.634;2023-03-01T09:47:31;9.98;;;5.80;;
70997;SDS011;58663;52.040;4.634;2023-03-01T09:50:15;10.20;;;6.28;;
70997;SDS011;58663;52.040;4.634;2023-03-01T09:52:50;8.85;;;5.72;;
70997;SDS011;58663;52.040;4.634;2023-03-01T09:55:26;13.63;;;7.05;;
70997;SDS011;58663;52.040;4.634;2023-03-01T10:04:08;12.20;;;6.22;;
70997;SDS011;58663;52.040;4.634;2023-03-01T10:06:59;9.70;;;6.07;;
70997;SDS011;58663;52.040;4.634;2023-03-01T10:09:33;9.70;;;5.25;;
70997;SDS011;58663;52.040;4.634;2023-03-01T10:11:59;9.07;;;5.65;;
70997;SDS011;58663;52.040;4.634;2023-03-01T10:14:38;10.68;;;5.80;;
70997;SDS011;58663;52.040;4.634;2023-03-01T10:19:49;8.25;;;5.22;;
70997;SDS011;58663;52.040;4.634;2023-03-01T10:24:40;11.57;;;5.32;;
70997;SDS011;58663;52.040;4.634;2023-03-01T10:27:11;9.25;;;5.43;;
70997;SDS011;58663;52.040;4.634;2023-03-01T10:29:46;9.07;;;5.53;;
70997;SDS011;58663;52.040;4.634;2023-03-01T10:32:14;12.40;;;6.53;;
70997;SDS011;58663;52.040;4.634;2023-03-01T10:34:39;13.25;;;7.85;;
70997;SDS011;58663;52.040;4.634;2023-03-01T10:39:40;14.90;;;6.35;;
70997;SDS011;58663;52.040;4.634;2023-03-01T10:42:22;14.32;;;7.32;;
70997;SDS011;58663;52.040;4.634;2023-03-01T10:44:51;13.45;;;7.20;;
70997;SDS011;58663;52.040;4.634;2023-03-01T10:47:18;13.40;;;6.68;;
70997;SDS011;58663;52.040;4.634;2023-03-01T10:52:17;13.80;;;7.28;;
70997;SDS011;58663;52.040;4.634;2023-03-01T10:54:52;10.73;;;6.38;;
70997;SDS011;58663;52.040;4.634;2023-03-01T10:57:33;11.02;;;5.93;;
70997;SDS011;58663;52.040;4.634;2023-03-01T11:00:17;11.60;;;6.60;;
70997;SDS011;58663;52.040;4.634;2023-03-01T11:03:10;12.35;;;6.55;;
70997;SDS011;58663;52.040;4.634;2023-03-01T11:05:37;14.77;;;6.55;;
70997;SDS011;58663;52.040;4.634;2023-03-01T11:08:25;12.02;;;7.28;;
70997;SDS011;58663;52.040;4.634;2023-03-01T11:11:03;12.68;;;6.82;;
70997;SDS011;58663;52.040;4.634;2023-03-01T11:13:30;9.35;;;6.07;;
70997;SDS011;58663;52.040;4.634;2023-03-01T11:15:59;10.60;;;6.00;;
70997;SDS011;58663;52.040;4.634;2023-03-01T11:18:26;13.73;;;7.18;;
70997;SDS011;58663;52.040;4.634;2023-03-01T11:20:52;13.45;;;7.25;;
70997;SDS011;58663;52.040;4.634;2023-03-01T11:23:18;10.65;;;6.55;;
70997;SDS011;58663;52.040;4.634;2023-03-01T11:25:54;11.50;;;6.68;;
70997;SDS011;58663;52.040;4.634;2023-03-01T11:28:21;10.48;;;6.82;;
70997;SDS011;58663;52.040;4.634;2023-03-01T11:30:52;10.70;;;6.57;;
70997;SDS011;58663;52.040;4.634;2023-03-01T11:33:24;12.48;;;7.13;;
70997;SDS011;58663;52.040;4.634;2023-03-01T11:36:00;12.93;;;6.05;;
70997;SDS011;58663;52.040;4.634;2023-03-01T11:38:28;10.80;;;6.53;;
70997;SDS011;58663;52.040;4.634;2023-03-01T11:41:00;10.88;;;6.65;;
70997;SDS011;58663;52.040;4.634;2023-03-01T11:59:54;8.23;;;4.95;;
70997;SDS011;58663;52.040;4.634;2023-03-01T12:02:27;6.60;;;4.05;;
70997;SDS011;58663;52.040;4.634;2023-03-01T12:10:38;9.88;;;5.78;;
70997;SDS011;58663;52.040;4.634;2023-03-01T12:41:06;8.77;;;5.13;;
70997;SDS011;58663;52.040;4.634;2023-03-01T12:49:08;9.38;;;5.18;;
70997;SDS011;58663;52.040;4.634;2023-03-01T12:51:38;10.00;;;4.88;;
70997;SDS011;58663;52.040;4.634;2023-03-01T12:54:12;5.93;;;4.03;;
70997;SDS011;58663;52.040;4.634;2023-03-01T12:56:40;6.57;;;3.90;;
70997;SDS011;58663;52.040;4.634;2023-03-01T13:05:00;7.80;;;4.35;;
70997;SDS011;58663;52.040;4.634;2023-03-01T13:20:15;6.25;;;4.00;;
70997;SDS011;58663;52.040;4.634;2023-03-01T13:22:43;7.40;;;3.75;;
70997;SDS011;58663;52.040;4.634;2023-03-01T13:25:16;5.90;;;3.75;;
70997;SDS011;58663;52.040;4.634;2023-03-01T13:27:44;6.30;;;3.60;;
70997;SDS011;58663;52.040;4.634;2023-03-01T13:30:56;10.18;;;4.20;;
70997;SDS011;58663;52.040;4.634;2023-03-01T13:35:52;6.00;;;3.13;;
70997;SDS011;58663;52.040;4.634;2023-03-01T13:41:04;5.57;;;3.63;;
70997;SDS011;58663;52.040;4.634;2023-03-01T13:43:34;7.63;;;4.10;;
70997;SDS011;58663;52.040;4.634;2023-03-01T13:46:01;8.43;;;4.07;;
70997;SDS011;58663;52.040;4.634;2023-03-01T13:48:32;5.72;;;3.42;;
70997;SDS011;58663;52.040;4.634;2023-03-01T13:51:00;6.30;;;4.10;;
70997;SDS011;58663;52.040;4.634;2023-03-01T13:53:33;5.30;;;3.75;;
70997;SDS011;58663;52.040;4.634;2023-03-01T13:56:01;6.72;;;3.88;;
70997;SDS011;58663;52.040;4.634;2023-03-01T13:58:29;8.50;;;4.28;;
70997;SDS011;58663;52.040;4.634;2023-03-01T14:01:06;6.25;;;3.80;;
70997;SDS011;58663;52.040;4.634;2023-03-01T14:03:34;6.70;;;4.03;;
70997;SDS011;58663;52.040;4.634;2023-03-01T14:06:08;7.72;;;3.95;;
70997;SDS011;58663;52.040;4.634;2023-03-01T14:08:36;8.13;;;4.22;;
70997;SDS011;58663;52.040;4.634;2023-03-01T14:14:02;5.63;;;3.80;;
70997;SDS011;58663;52.040;4.634;2023-03-01T14:19:20;5.28;;;3.83;;
70997;SDS011;58663;52.040;4.634;2023-03-01T14:24:43;8.60;;;4.32;;
70997;SDS011;58663;52.040;4.634;2023-03-01T14:27:19;5.32;;;3.78;;
70997;SDS011;58663;52.040;4.634;2023-03-01T14:30:31;6.35;;;3.90;;
70997;SDS011;58663;52.040;4.634;2023-03-01T14:32:42;6.25;;;3.65;;
70997;SDS011;58663;52.040;4.634;2023-03-01T14:35:27;7.72;;;3.53;;
70997;SDS011;58663;52.040;4.634;2023-03-01T14:37:54;5.35;;;3.67;;
70997;SDS011;58663;52.040;4.634;2023-03-01T14:40:21;14.00;;;3.63;;
70997;SDS011;58663;52.040;4.634;2023-03-01T14:42:52;8.57;;;3.80;;
70997;SDS011;58663;52.040;4.634;2023-03-01T14:45:19;5.40;;;3.25;;
70997;SDS011;58663;52.040;4.634;2023-03-01T14:47:45;8.07;;;3.50;;
70997;SDS011;58663;52.040;4.634;2023-03-01T14:50:22;6.43;;;3.40;;
70997;SDS011;58663;52.040;4.634;2023-03-01T14:52:50;6.53;;;3.55;;
70997;SDS011;58663;52.040;4.634;2023-03-01T14:55:19;8.10;;;4.03;;
70997;SDS011;58663;52.040;4.634;2023-03-01T14:57:49;6.65;;;3.72;;
70997;SDS011;58663;52.040;4.634;2023-03-01T15:00:17;6.50;;;3.60;;
70997;SDS011;58663;52.040;4.634;2023-03-01T15:02:45;5.20;;;3.72;;
70997;SDS011;58663;52.040;4.634;2023-03-01T15:05:13;6.93;;;3.85;;
70997;SDS011;58663;52.040;4.634;2023-03-01T15:07:40;5.75;;;3.72;;
70997;SDS011;58663;52.040;4.634;2023-03-01T15:10:12;7.38;;;3.78;;
70997;SDS011;58663;52.040;4.634;2023-03-01T15:12:42;6.07;;;3.45;;
70997;SDS011;58663;52.040;4.634;2023-03-01T15:15:30;10.70;;;2.95;;
70997;SDS011;58663;52.040;4.634;2023-03-01T15:18:05;4.55;;;3.40;;
70997;SDS011;58663;52.040;4.634;2023-03-01T15:20:38;5.68;;;3.28;;
70997;SDS011;58663;52.040;4.634;2023-03-01T15:23:04;5.47;;;3.65;;
70997;SDS011;58663;52.040;4.634;2023-03-01T15:25:30;6.00;;;3.58;;
70997;SDS011;58663;52.040;4.634;2023-03-01T15:27:57;6.82;;;3.55;;
70997;SDS011;58663;52.040;4.634;2023-03-01T15:30:29;6.28;;;4.03;;
70997;SDS011;58663;52.040;4.634;2023-03-01T15:35:47;8.75;;;4.13;;
70997;SDS011;58663;52.040;4.634;2023-03-01T15:38:30;7.85;;;4.40;;
70997;SDS011;58663;52.040;4.634;2023-03-01T15:41:23;7.20;;;3.80;;
70997;SDS011;58663;52.040;4.634;2023-03-01T15:43:50;4.95;;;3.65;;
70997;SDS011;58663;52.040;4.634;2023-03-01T15:46:29;9.15;;;3.70;;
70997;SDS011;58663;52.040;4.634;2023-03-01T15:48:58;6.70;;;3.55;;
70997;SDS011;58663;52.040;4.634;2023-03-01T15:51:32;7.25;;;3.80;;
70997;SDS011;58663;52.040;4.634;2023-03-01T15:54:00;6.72;;;3.92;;
70997;SDS011;58663;52.040;4.634;2023-03-01T15:56:28;5.95;;;3.40;;
70997;SDS011;58663;52.040;4.634;2023-03-01T15:58:57;7.60;;;3.90;;
70997;SDS011;58663;52.040;4.634;2023-03-01T16:01:24;6.10;;;3.63;;
70997;SDS011;58663;52.040;4.634;2023-03-01T16:03:49;17.83;;;4.00;;
70997;SDS011;58663;52.040;4.634;2023-03-01T16:06:15;6.82;;;3.95;;
70997;SDS011;58663;52.040;4.634;2023-03-01T16:08:40;8.00;;;4.03;;
70997;SDS011;58663;52.040;4.634;2023-03-01T16:11:12;6.78;;;3.90;;
70997;SDS011;58663;52.040;4.634;2023-03-01T16:13:39;7.13;;;4.05;;
70997;SDS011;58663;52.040;4.634;2023-03-01T16:16:05;8.27;;;4.32;;
70997;SDS011;58663;52.040;4.634;2023-03-01T16:18:30;5.53;;;3.40;;
70997;SDS011;58663;52.040;4.634;2023-03-01T16:20:55;6.32;;;4.05;;
70997;SDS011;58663;52.040;4.634;2023-03-01T16:23:21;7.20;;;3.70;;
70997;SDS011;58663;52.040;4.634;2023-03-01T16:25:50;9.52;;;4.20;;
70997;SDS011;58663;52.040;4.634;2023-03-01T16:28:15;9.77;;;4.15;;
70997;SDS011;58663;52.040;4.634;2023-03-01T16:30:44;7.05;;;4.05;;
70997;SDS011;58663;52.040;4.634;2023-03-01T16:33:11;8.10;;;4.15;;
70997;SDS011;58663;52.040;4.634;2023-03-01T16:35:39;6.10;;;3.67;;
70997;SDS011;58663;52.040;4.634;2023-03-01T16:38:04;9.20;;;4.53;;